sensor_id;sensor_type;location;lat;lon;timestamp;P1;durP1;ratioP1;P2;durP2;ratioP2
24259;SDS011;12384;48.112;18.418;2023-03-02T00:01:48;21.03;;;18.90;;
24259;SDS011;12384;48.112;18.418;2023-03-02T00:04:19;23.33;;;20.93;;
24259;SDS011;12384;48.112;18.418;2023-03-02T00:06:52;22.70;;;19.90;;
24259;SDS011;12384;48.112;18.418;2023-03-02T00:09:23;22.33;;;20.03;;
24259;SDS011;12384;48.112;18.418;2023-03-02T00:11:51;19.33;;;17.40;;
24259;SDS011;12384;48.112;18.418;2023-03-02T00:14:19;21.37;;;19.27;;
24259;SDS011;12384;48.112;18.418;2023-03-02T00:16:48;20.40;;;18.60;;
24259;SDS011;12384;48.112;18.418;2023-03-02T00:19:16;19.77;;;17.83;;
24259;SDS011;12384;48.112;18.418;2023-03-02T00:21:44;20.07;;;18.03;;
24259;SDS011;12384;48.112;18.418;2023-03-02T00:24:14;21.90;;;19.67;;
24259;SDS011;12384;48.112;18.418;2023-03-02T00:26:42;23.73;;;21.20;;
24259;SDS011;12384;48.112;18.418;2023-03-02T00:29:11;23.07;;;20.70;;
24259;SDS011;12384;48.112;18.418;2023-03-02T00:31:40;22.83;;;20.53;;
24259;SDS011;12384;48.112;18.418;2023-03-02T00:34:08;21.27;;;18.67;;
24259;SDS011;12384;48.112;18.418;2023-03-02T00:36:37;21.70;;;19.57;;
24259;SDS011;12384;48.112;18.418;2023-03-02T00:39:06;21.37;;;19.27;;
24259;SDS011;12384;48.112;18.418;2023-03-02T00:41:35;23.97;;;19.60;;
24259;SDS011;12384;48.112;18.418;2023-03-02T00:44:04;21.30;;;19.20;;
24259;SDS011;12384;48.112;18.418;2023-03-02T00:46:32;22.20;;;19.90;;
24259;SDS011;12384;48.112;18.418;2023-03-02T00:49:03;22.87;;;20.43;;
24259;SDS011;12384;48.112;18.418;2023-03-02T00:51:31;22.00;;;19.80;;
24259;SDS011;12384;48.112;18.418;2023-03-02T00:54:00;24.83;;;21.30;;
24259;SDS011;12384;48.112;18.418;2023-03-02T00:56:28;22.10;;;19.93;;
24259;SDS011;12384;48.112;18.418;2023-03-02T00:59:04;21.10;;;18.87;;
24259;SDS011;12384;48.112;18.418;2023-03-02T01:01:34;23.03;;;19.63;;
24259;SDS011;12384;48.112;18.418;2023-03-02T01:04:04;20.27;;;18.10;;
24259;SDS011;12384;48.112;18.418;2023-03-02T01:06:32;21.40;;;19.27;;
24259;SDS011;12384;48.112;18.418;2023-03-02T01:09:01;26.77;;;22.90;;
24259;SDS011;12384;48.112;18.418;2023-03-02T01:11:30;26.77;;;22.73;;
24259;SDS011;12384;48.112;18.418;2023-03-02T01:13:58;21.97;;;19.23;;
24259;SDS011;12384;48.112;18.418;2023-03-02T01:16:27;20.80;;;18.77;;
24259;SDS011;12384;48.112;18.418;2023-03-02T01:18:58;21.27;;;19.17;;
24259;SDS011;12384;48.112;18.418;2023-03-02T01:21:26;21.60;;;18.77;;
24259;SDS011;12384;48.112;18.418;2023-03-02T01:23:54;20.83;;;18.83;;
24259;SDS011;12384;48.112;18.418;2023-03-02T01:26:23;18.97;;;17.27;;
24259;SDS011;12384;48.112;18.418;2023-03-02T01:28:51;20.23;;;18.23;;
24259;SDS011;12384;48.112;18.418;2023-03-02T01:31:21;19.03;;;17.20;;
24259;SDS011;12384;48.112;18.418;2023-03-02T01:33:51;19.03;;;17.10;;
24259;SDS011;12384;48.112;18.418;2023-03-02T01:36:20;19.33;;;17.30;;
24259;SDS011;12384;48.112;18.418;2023-03-02T01:38:49;19.97;;;18.00;;
24259;SDS011;12384;48.112;18.418;2023-03-02T01:41:19;18.83;;;17.03;;
24259;SDS011;12384;48.112;18.418;2023-03-02T01:43:48;18.23;;;16.53;;
24259;SDS011;12384;48.112;18.418;2023-03-02T01:46:17;20.60;;;18.43;;
24259;SDS011;12384;48.112;18.418;2023-03-02T01:48:56;20.70;;;18.60;;
24259;SDS011;12384;48.112;18.418;2023-03-02T01:51:42;21.13;;;18.93;;
24259;SDS011;12384;48.112;18.418;2023-03-02T01:54:15;19.60;;;17.73;;
24259;SDS011;12384;48.112;18.418;2023-03-02T01:56:53;23.23;;;20.43;;
24259;SDS011;12384;48.112;18.418;2023-03-02T01:59:26;23.07;;;20.67;;
24259;SDS011;12384;48.112;18.418;2023-03-02T02:01:57;23.73;;;21.27;;
24259;SDS011;12384;48.112;18.418;2023-03-02T02:04:31;21.17;;;18.97;;
24259;SDS011;12384;48.112;18.418;2023-03-02T02:07:04;20.60;;;18.57;;
24259;SDS011;12384;48.112;18.418;2023-03-02T02:09:35;20.80;;;18.63;;
24259;SDS011;12384;48.112;18.418;2023-03-02T02:12:11;20.47;;;18.37;;
24259;SDS011;12384;48.112;18.418;2023-03-02T02:14:41;19.30;;;17.40;;
24259;SDS011;12384;48.112;18.418;2023-03-02T02:17:10;18.93;;;16.93;;
24259;SDS011;12384;48.112;18.418;2023-03-02T02:19:43;18.53;;;16.60;;
24259;SDS011;12384;48.112;18.418;2023-03-02T02:22:27;19.10;;;17.30;;
24259;SDS011;12384;48.112;18.418;2023-03-02T02:25:05;19.30;;;17.50;;
24259;SDS011;12384;48.112;18.418;2023-03-02T02:27:43;20.80;;;18.27;;
24259;SDS011;12384;48.112;18.418;2023-03-02T02:30:13;19.03;;;17.33;;
24259;SDS011;12384;48.112;18.418;2023-03-02T02:32:43;18.83;;;17.03;;
24259;SDS011;12384;48.112;18.418;2023-03-02T02:35:15;18.83;;;17.23;;
24259;SDS011;12384;48.112;18.418;2023-03-02T02:37:48;18.23;;;16.60;;
24259;SDS011;12384;48.112;18.418;2023-03-02T02:40:20;17.63;;;16.13;;
24259;SDS011;12384;48.112;18.418;2023-03-02T02:43:08;17.43;;;15.80;;
24259;SDS011;12384;48.112;18.418;2023-03-02T02:45:38;15.70;;;14.43;;
24259;SDS011;12384;48.112;18.418;2023-03-02T02:48:08;16.93;;;15.40;;
24259;SDS011;12384;48.112;18.418;2023-03-02T02:50:42;18.40;;;16.60;;
24259;SDS011;12384;48.112;18.418;2023-03-02T02:53:12;17.70;;;16.10;;
24259;SDS011;12384;48.112;18.418;2023-03-02T02:55:44;16.53;;;15.10;;
24259;SDS011;12384;48.112;18.418;2023-03-02T02:58:21;15.67;;;14.27;;
24259;SDS011;12384;48.112;18.418;2023-03-02T03:00:54;16.20;;;14.70;;
24259;SDS011;12384;48.112;18.418;2023-03-02T03:03:24;16.47;;;15.07;;
24259;SDS011;12384;48.112;18.418;2023-03-02T03:06:01;17.03;;;15.53;;
24259;SDS011;12384;48.112;18.418;2023-03-02T03:08:47;18.60;;;16.90;;
24259;SDS011;12384;48.112;18.418;2023-03-02T03:11:42;20.70;;;18.47;;
24259;SDS011;12384;48.112;18.418;2023-03-02T03:14:17;19.33;;;17.43;;
24259;SDS011;12384;48.112;18.418;2023-03-02T03:16:50;18.97;;;17.13;;
24259;SDS011;12384;48.112;18.418;2023-03-02T03:19:20;17.10;;;15.50;;
24259;SDS011;12384;48.112;18.418;2023-03-02T03:21:52;17.07;;;15.43;;
24259;SDS011;12384;48.112;18.418;2023-03-02T03:24:24;18.70;;;16.80;;
24259;SDS011;12384;48.112;18.418;2023-03-02T03:26:54;18.37;;;16.57;;
24259;SDS011;12384;48.112;18.418;2023-03-02T03:29:25;18.27;;;16.67;;
24259;SDS011;12384;48.112;18.418;2023-03-02T03:31:58;19.37;;;17.23;;
24259;SDS011;12384;48.112;18.418;2023-03-02T03:34:29;24.07;;;18.33;;
24259;SDS011;12384;48.112;18.418;2023-03-02T03:36:57;18.00;;;16.20;;
24259;SDS011;12384;48.112;18.418;2023-03-02T03:39:32;20.70;;;18.50;;
24259;SDS011;12384;48.112;18.418;2023-03-02T03:42:03;18.83;;;16.73;;
24259;SDS011;12384;48.112;18.418;2023-03-02T03:44:33;20.57;;;16.70;;
24259;SDS011;12384;48.112;18.418;2023-03-02T03:47:02;18.90;;;17.00;;
24259;SDS011;12384;48.112;18.418;2023-03-02T03:49:30;19.80;;;17.67;;
24259;SDS011;12384;48.112;18.418;2023-03-02T03:51:59;18.90;;;16.90;;
24259;SDS011;12384;48.112;18.418;2023-03-02T03:54:29;21.50;;;17.67;;
24259;SDS011;12384;48.112;18.418;2023-03-02T03:56:58;21.23;;;17.83;;
24259;SDS011;12384;48.112;18.418;2023-03-02T03:59:27;21.87;;;17.97;;
24259;SDS011;12384;48.112;18.418;2023-03-02T04:02:00;19.43;;;17.23;;
24259;SDS011;12384;48.112;18.418;2023-03-02T04:04:35;18.77;;;16.77;;
24259;SDS011;12384;48.112;18.418;2023-03-02T04:07:10;22.07;;;17.33;;
24259;SDS011;12384;48.112;18.418;2023-03-02T04:09:41;19.23;;;16.47;;
24259;SDS011;12384;48.112;18.418;2023-03-02T04:12:12;19.50;;;16.20;;
24259;SDS011;12384;48.112;18.418;2023-03-02T04:14:46;20.80;;;17.10;;
24259;SDS011;12384;48.112;18.418;2023-03-02T04:17:15;19.87;;;17.93;;
24259;SDS011;12384;48.112;18.418;2023-03-02T04:19:46;17.33;;;15.73;;
24259;SDS011;12384;48.112;18.418;2023-03-02T04:22:15;18.57;;;16.63;;
24259;SDS011;12384;48.112;18.418;2023-03-02T04:24:46;18.90;;;16.67;;
24259;SDS011;12384;48.112;18.418;2023-03-02T04:27:16;18.83;;;17.03;;
24259;SDS011;12384;48.112;18.418;2023-03-02T04:29:45;17.20;;;15.60;;
24259;SDS011;12384;48.112;18.418;2023-03-02T04:32:15;18.57;;;16.70;;
24259;SDS011;12384;48.112;18.418;2023-03-02T04:34:50;19.90;;;16.23;;
24259;SDS011;12384;48.112;18.418;2023-03-02T04:37:18;18.80;;;16.90;;
24259;SDS011;12384;48.112;18.418;2023-03-02T04:39:47;18.40;;;16.60;;
24259;SDS011;12384;48.112;18.418;2023-03-02T04:42:17;15.50;;;14.10;;
24259;SDS011;12384;48.112;18.418;2023-03-02T04:44:45;15.13;;;13.83;;
24259;SDS011;12384;48.112;18.418;2023-03-02T04:47:15;15.23;;;13.83;;
24259;SDS011;12384;48.112;18.418;2023-03-02T04:49:44;20.20;;;17.00;;
24259;SDS011;12384;48.112;18.418;2023-03-02T04:52:12;16.97;;;15.27;;
24259;SDS011;12384;48.112;18.418;2023-03-02T04:54:40;18.23;;;16.33;;
24259;SDS011;12384;48.112;18.418;2023-03-02T04:57:09;16.53;;;14.93;;
24259;SDS011;12384;48.112;18.418;2023-03-02T04:59:38;17.03;;;15.47;;
24259;SDS011;12384;48.112;18.418;2023-03-02T05:02:06;18.37;;;15.23;;
24259;SDS011;12384;48.112;18.418;2023-03-02T05:04:36;17.60;;;15.77;;
24259;SDS011;12384;48.112;18.418;2023-03-02T05:07:06;19.63;;;16.93;;
24259;SDS011;12384;48.112;18.418;2023-03-02T05:09:34;17.47;;;15.77;;
24259;SDS011;12384;48.112;18.418;2023-03-02T05:12:03;17.87;;;16.27;;
24259;SDS011;12384;48.112;18.418;2023-03-02T05:14:32;16.80;;;15.30;;
24259;SDS011;12384;48.112;18.418;2023-03-02T05:17:00;17.40;;;15.87;;
24259;SDS011;12384;48.112;18.418;2023-03-02T05:19:29;16.27;;;14.87;;
24259;SDS011;12384;48.112;18.418;2023-03-02T05:21:58;21.33;;;19.10;;
24259;SDS011;12384;48.112;18.418;2023-03-02T05:24:27;24.57;;;20.30;;
24259;SDS011;12384;48.112;18.418;2023-03-02T05:26:55;21.67;;;19.30;;
24259;SDS011;12384;48.112;18.418;2023-03-02T05:29:24;22.50;;;20.07;;
24259;SDS011;12384;48.112;18.418;2023-03-02T05:31:52;20.67;;;18.37;;
24259;SDS011;12384;48.112;18.418;2023-03-02T05:34:21;18.83;;;16.93;;
24259;SDS011;12384;48.112;18.418;2023-03-02T05:36:49;17.90;;;16.20;;
24259;SDS011;12384;48.112;18.418;2023-03-02T05:39:19;17.90;;;16.30;;
24259;SDS011;12384;48.112;18.418;2023-03-02T05:41:48;17.40;;;15.87;;
24259;SDS011;12384;48.112;18.418;2023-03-02T05:44:16;15.70;;;14.30;;
24259;SDS011;12384;48.112;18.418;2023-03-02T05:46:44;15.83;;;14.43;;
24259;SDS011;12384;48.112;18.418;2023-03-02T05:49:15;14.83;;;13.60;;
24259;SDS011;12384;48.112;18.418;2023-03-02T05:51:43;15.03;;;13.73;;
24259;SDS011;12384;48.112;18.418;2023-03-02T05:54:11;14.50;;;13.20;;
24259;SDS011;12384;48.112;18.418;2023-03-02T05:56:42;15.50;;;14.20;;
24259;SDS011;12384;48.112;18.418;2023-03-02T05:59:11;15.00;;;13.63;;
24259;SDS011;12384;48.112;18.418;2023-03-02T06:01:39;15.30;;;13.90;;
24259;SDS011;12384;48.112;18.418;2023-03-02T06:04:08;15.23;;;13.93;;
24259;SDS011;12384;48.112;18.418;2023-03-02T06:06:36;14.73;;;13.37;;
24259;SDS011;12384;48.112;18.418;2023-03-02T06:09:05;15.60;;;14.07;;
24259;SDS011;12384;48.112;18.418;2023-03-02T06:11:33;15.10;;;13.70;;
24259;SDS011;12384;48.112;18.418;2023-03-02T06:14:03;14.33;;;13.00;;
24259;SDS011;12384;48.112;18.418;2023-03-02T06:16:32;15.20;;;13.80;;
24259;SDS011;12384;48.112;18.418;2023-03-02T06:19:03;15.17;;;13.80;;
24259;SDS011;12384;48.112;18.418;2023-03-02T06:21:31;15.13;;;13.73;;
24259;SDS011;12384;48.112;18.418;2023-03-02T06:24:00;14.33;;;13.13;;
24259;SDS011;12384;48.112;18.418;2023-03-02T06:26:28;15.17;;;13.70;;
24259;SDS011;12384;48.112;18.418;2023-03-02T06:28:57;15.47;;;14.07;;
24259;SDS011;12384;48.112;18.418;2023-03-02T06:31:27;16.00;;;14.50;;
24259;SDS011;12384;48.112;18.418;2023-03-02T06:33:56;15.70;;;14.40;;
24259;SDS011;12384;48.112;18.418;2023-03-02T06:36:25;15.10;;;13.80;;
24259;SDS011;12384;48.112;18.418;2023-03-02T06:38:54;16.50;;;14.90;;
24259;SDS011;12384;48.112;18.418;2023-03-02T06:41:22;17.37;;;15.80;;
24259;SDS011;12384;48.112;18.418;2023-03-02T06:43:51;15.63;;;14.30;;
24259;SDS011;12384;48.112;18.418;2023-03-02T06:46:19;15.57;;;14.27;;
24259;SDS011;12384;48.112;18.418;2023-03-02T06:48:49;15.70;;;14.30;;
24259;SDS011;12384;48.112;18.418;2023-03-02T06:51:17;15.97;;;14.57;;
24259;SDS011;12384;48.112;18.418;2023-03-02T06:53:46;15.10;;;13.70;;
24259;SDS011;12384;48.112;18.418;2023-03-02T06:56:14;14.37;;;13.27;;
24259;SDS011;12384;48.112;18.418;2023-03-02T06:58:43;15.10;;;13.80;;
24259;SDS011;12384;48.112;18.418;2023-03-02T07:01:11;15.47;;;14.10;;
24259;SDS011;12384;48.112;18.418;2023-03-02T07:03:39;16.37;;;14.97;;
24259;SDS011;12384;48.112;18.418;2023-03-02T07:06:10;16.27;;;14.77;;
24259;SDS011;12384;48.112;18.418;2023-03-02T07:08:39;15.33;;;14.13;;
24259;SDS011;12384;48.112;18.418;2023-03-02T07:11:09;16.70;;;15.30;;
24259;SDS011;12384;48.112;18.418;2023-03-02T07:13:39;14.77;;;13.57;;
24259;SDS011;12384;48.112;18.418;2023-03-02T07:16:08;15.53;;;14.27;;
24259;SDS011;12384;48.112;18.418;2023-03-02T07:18:37;15.10;;;13.70;;
24259;SDS011;12384;48.112;18.418;2023-03-02T07:21:06;15.93;;;14.53;;
24259;SDS011;12384;48.112;18.418;2023-03-02T07:23:35;15.97;;;14.67;;
24259;SDS011;12384;48.112;18.418;2023-03-02T07:26:04;15.00;;;13.80;;
24259;SDS011;12384;48.112;18.418;2023-03-02T07:28:34;14.13;;;12.83;;
24259;SDS011;12384;48.112;18.418;2023-03-02T07:31:05;14.20;;;13.10;;
24259;SDS011;12384;48.112;18.418;2023-03-02T07:33:34;14.07;;;12.93;;
24259;SDS011;12384;48.112;18.418;2023-03-02T07:36:04;15.30;;;14.03;;
24259;SDS011;12384;48.112;18.418;2023-03-02T07:38:33;15.07;;;13.73;;
24259;SDS011;12384;48.112;18.418;2023-03-02T07:41:05;14.67;;;13.57;;
24259;SDS011;12384;48.112;18.418;2023-03-02T07:43:34;14.40;;;13.30;;
24259;SDS011;12384;48.112;18.418;2023-03-02T07:46:03;15.00;;;13.90;;
24259;SDS011;12384;48.112;18.418;2023-03-02T07:48:33;15.10;;;13.87;;
24259;SDS011;12384;48.112;18.418;2023-03-02T07:51:03;15.70;;;14.30;;
24259;SDS011;12384;48.112;18.418;2023-03-02T07:53:33;15.07;;;13.77;;
24259;SDS011;12384;48.112;18.418;2023-03-02T07:56:07;14.37;;;13.17;;
24259;SDS011;12384;48.112;18.418;2023-03-02T07:58:37;13.87;;;12.77;;
24259;SDS011;12384;48.112;18.418;2023-03-02T08:01:06;14.47;;;13.27;;
24259;SDS011;12384;48.112;18.418;2023-03-02T08:03:34;13.77;;;12.73;;
24259;SDS011;12384;48.112;18.418;2023-03-02T08:06:04;14.30;;;13.20;;
24259;SDS011;12384;48.112;18.418;2023-03-02T08:08:33;15.23;;;14.00;;
24259;SDS011;12384;48.112;18.418;2023-03-02T08:11:02;14.50;;;13.30;;
24259;SDS011;12384;48.112;18.418;2023-03-02T08:13:33;17.47;;;15.87;;
24259;SDS011;12384;48.112;18.418;2023-03-02T08:16:02;20.73;;;18.30;;
24259;SDS011;12384;48.112;18.418;2023-03-02T08:18:32;22.57;;;19.10;;
24259;SDS011;12384;48.112;18.418;2023-03-02T08:21:01;17.67;;;15.97;;
24259;SDS011;12384;48.112;18.418;2023-03-02T08:23:29;15.63;;;14.33;;
24259;SDS011;12384;48.112;18.418;2023-03-02T08:25:58;16.83;;;15.33;;
24259;SDS011;12384;48.112;18.418;2023-03-02T08:28:26;17.33;;;15.77;;
24259;SDS011;12384;48.112;18.418;2023-03-02T08:30:56;18.70;;;17.00;;
24259;SDS011;12384;48.112;18.418;2023-03-02T08:33:25;16.73;;;15.23;;
24259;SDS011;12384;48.112;18.418;2023-03-02T08:35:56;17.20;;;15.60;;
24259;SDS011;12384;48.112;18.418;2023-03-02T08:38:25;14.90;;;13.70;;
24259;SDS011;12384;48.112;18.418;2023-03-02T08:40:54;14.60;;;13.30;;
24259;SDS011;12384;48.112;18.418;2023-03-02T08:43:23;15.07;;;13.77;;
24259;SDS011;12384;48.112;18.418;2023-03-02T08:45:53;15.93;;;14.50;;
24259;SDS011;12384;48.112;18.418;2023-03-02T08:48:25;17.77;;;16.03;;
24259;SDS011;12384;48.112;18.418;2023-03-02T08:50:55;16.57;;;14.90;;
24259;SDS011;12384;48.112;18.418;2023-03-02T08:53:25;15.13;;;13.93;;
24259;SDS011;12384;48.112;18.418;2023-03-02T08:55:54;14.43;;;13.23;;
24259;SDS011;12384;48.112;18.418;2023-03-02T08:58:23;15.52;;;14.23;;
24259;SDS011;12384;48.112;18.418;2023-03-02T09:00:51;15.03;;;13.73;;
24259;SDS011;12384;48.112;18.418;2023-03-02T09:03:20;14.00;;;12.83;;
24259;SDS011;12384;48.112;18.418;2023-03-02T09:05:50;14.97;;;13.77;;
24259;SDS011;12384;48.112;18.418;2023-03-02T09:08:18;15.30;;;14.07;;
24259;SDS011;12384;48.112;18.418;2023-03-02T09:10:46;15.18;;;13.88;;
24259;SDS011;12384;48.112;18.418;2023-03-02T09:13:15;14.68;;;13.20;;
24259;SDS011;12384;48.112;18.418;2023-03-02T09:15:43;14.47;;;13.30;;
24259;SDS011;12384;48.112;18.418;2023-03-02T09:18:12;14.20;;;13.10;;
24259;SDS011;12384;48.112;18.418;2023-03-02T09:20:40;13.70;;;12.70;;
24259;SDS011;12384;48.112;18.418;2023-03-02T09:23:10;12.93;;;11.93;;
24259;SDS011;12384;48.112;18.418;2023-03-02T09:25:39;13.35;;;12.35;;
24259;SDS011;12384;48.112;18.418;2023-03-02T09:28:09;13.17;;;12.17;;
24259;SDS011;12384;48.112;18.418;2023-03-02T09:30:38;12.93;;;12.03;;
24259;SDS011;12384;48.112;18.418;2023-03-02T09:33:06;13.07;;;11.88;;
24259;SDS011;12384;48.112;18.418;2023-03-02T09:35:37;12.43;;;11.53;;
24259;SDS011;12384;48.112;18.418;2023-03-02T09:38:05;11.50;;;10.60;;
24259;SDS011;12384;48.112;18.418;2023-03-02T09:40:39;12.57;;;11.57;;
24259;SDS011;12384;48.112;18.418;2023-03-02T09:43:24;11.63;;;10.83;;
24259;SDS011;12384;48.112;18.418;2023-03-02T09:46:06;11.70;;;10.90;;
24259;SDS011;12384;48.112;18.418;2023-03-02T09:48:50;12.37;;;11.47;;
24259;SDS011;12384;48.112;18.418;2023-03-02T09:51:30;12.30;;;11.20;;
24259;SDS011;12384;48.112;18.418;2023-03-02T09:54:03;12.18;;;11.27;;
24259;SDS011;12384;48.112;18.418;2023-03-02T09:56:38;11.90;;;11.00;;
24259;SDS011;12384;48.112;18.418;2023-03-02T09:59:14;12.17;;;11.20;;
24259;SDS011;12384;48.112;18.418;2023-03-02T10:01:51;11.18;;;10.43;;
24259;SDS011;12384;48.112;18.418;2023-03-02T10:04:24;11.30;;;10.40;;
24259;SDS011;12384;48.112;18.418;2023-03-02T10:06:55;11.35;;;10.55;;
24259;SDS011;12384;48.112;18.418;2023-03-02T10:09:26;11.43;;;10.68;;
24259;SDS011;12384;48.112;18.418;2023-03-02T10:12:06;11.77;;;10.88;;
24259;SDS011;12384;48.112;18.418;2023-03-02T10:14:44;11.13;;;10.33;;
24259;SDS011;12384;48.112;18.418;2023-03-02T10:17:22;11.80;;;11.00;;
24259;SDS011;12384;48.112;18.418;2023-03-02T10:20:07;11.32;;;10.43;;
24259;SDS011;12384;48.112;18.418;2023-03-02T10:22:42;11.80;;;11.00;;
24259;SDS011;12384;48.112;18.418;2023-03-02T10:25:16;11.50;;;10.65;;
24259;SDS011;12384;48.112;18.418;2023-03-02T10:27:56;11.30;;;10.50;;
24259;SDS011;12384;48.112;18.418;2023-03-02T10:30:29;11.57;;;10.75;;
24259;SDS011;12384;48.112;18.418;2023-03-02T10:33:01;10.90;;;10.13;;
24259;SDS011;12384;48.112;18.418;2023-03-02T10:35:35;11.10;;;10.40;;
24259;SDS011;12384;48.112;18.418;2023-03-02T10:38:08;11.33;;;10.60;;
24259;SDS011;12384;48.112;18.418;2023-03-02T10:40:40;10.27;;;9.57;;
24259;SDS011;12384;48.112;18.418;2023-03-02T10:43:13;10.68;;;9.98;;
24259;SDS011;12384;48.112;18.418;2023-03-02T10:45:44;10.40;;;9.80;;
24259;SDS011;12384;48.112;18.418;2023-03-02T10:48:24;10.63;;;9.93;;
24259;SDS011;12384;48.112;18.418;2023-03-02T10:50:53;10.17;;;9.50;;
24259;SDS011;12384;48.112;18.418;2023-03-02T10:53:23;10.55;;;9.82;;
24259;SDS011;12384;48.112;18.418;2023-03-02T10:55:52;10.07;;;9.48;;
24259;SDS011;12384;48.112;18.418;2023-03-02T10:58:23;10.23;;;9.52;;
24259;SDS011;12384;48.112;18.418;2023-03-02T11:00:58;10.13;;;9.50;;
24259;SDS011;12384;48.112;18.418;2023-03-02T11:03:28;9.85;;;9.15;;
24259;SDS011;12384;48.112;18.418;2023-03-02T11:05:57;9.35;;;8.75;;
24259;SDS011;12384;48.112;18.418;2023-03-02T11:08:36;9.63;;;8.93;;
24259;SDS011;12384;48.112;18.418;2023-03-02T11:11:05;9.52;;;8.95;;
24259;SDS011;12384;48.112;18.418;2023-03-02T11:13:48;10.18;;;9.43;;
24259;SDS011;12384;48.112;18.418;2023-03-02T11:16:21;9.57;;;8.98;;
24259;SDS011;12384;48.112;18.418;2023-03-02T11:18:54;9.20;;;8.70;;
24259;SDS011;12384;48.112;18.418;2023-03-02T11:21:28;9.60;;;9.00;;
24259;SDS011;12384;48.112;18.418;2023-03-02T11:24:05;9.98;;;9.38;;
24259;SDS011;12384;48.112;18.418;2023-03-02T11:26:40;9.87;;;9.27;;
24259;SDS011;12384;48.112;18.418;2023-03-02T11:29:21;8.95;;;8.43;;
24259;SDS011;12384;48.112;18.418;2023-03-02T11:31:58;10.25;;;9.55;;
24259;SDS011;12384;48.112;18.418;2023-03-02T11:34:33;10.23;;;9.63;;
24259;SDS011;12384;48.112;18.418;2023-03-02T11:37:12;10.75;;;10.05;;
24259;SDS011;12384;48.112;18.418;2023-03-02T11:39:57;10.75;;;10.05;;
24259;SDS011;12384;48.112;18.418;2023-03-02T11:42:32;10.55;;;9.85;;
24259;SDS011;12384;48.112;18.418;2023-03-02T11:45:12;10.23;;;9.52;;
24259;SDS011;12384;48.112;18.418;2023-03-02T11:47:45;9.80;;;9.10;;
24259;SDS011;12384;48.112;18.418;2023-03-02T11:50:28;10.85;;;10.10;;
24259;SDS011;12384;48.112;18.418;2023-03-02T11:52:59;10.20;;;9.60;;
24259;SDS011;12384;48.112;18.418;2023-03-02T11:55:30;10.32;;;9.73;;
24259;SDS011;12384;48.112;18.418;2023-03-02T11:58:02;10.55;;;9.85;;
24259;SDS011;12384;48.112;18.418;2023-03-02T12:00:34;10.40;;;9.80;;
24259;SDS011;12384;48.112;18.418;2023-03-02T12:03:04;11.13;;;10.32;;
24259;SDS011;12384;48.112;18.418;2023-03-02T12:05:45;11.10;;;10.40;;
24259;SDS011;12384;48.112;18.418;2023-03-02T12:08:30;10.38;;;9.68;;
24259;SDS011;12384;48.112;18.418;2023-03-02T12:11:02;10.20;;;9.60;;
24259;SDS011;12384;48.112;18.418;2023-03-02T12:13:33;10.93;;;10.23;;
24259;SDS011;12384;48.112;18.418;2023-03-02T12:16:16;10.85;;;10.15;;
24259;SDS011;12384;48.112;18.418;2023-03-02T12:18:47;9.98;;;9.38;;
24259;SDS011;12384;48.112;18.418;2023-03-02T12:21:19;10.00;;;9.40;;
24259;SDS011;12384;48.112;18.418;2023-03-02T12:23:57;10.30;;;9.70;;
24259;SDS011;12384;48.112;18.418;2023-03-02T12:26:31;9.73;;;9.13;;
24259;SDS011;12384;48.112;18.418;2023-03-02T12:29:04;10.38;;;9.77;;
24259;SDS011;12384;48.112;18.418;2023-03-02T12:31:50;9.65;;;9.05;;
24259;SDS011;12384;48.112;18.418;2023-03-02T12:34:36;10.32;;;9.63;;
24259;SDS011;12384;48.112;18.418;2023-03-02T12:37:10;10.38;;;9.68;;
24259;SDS011;12384;48.112;18.418;2023-03-02T12:42:49;9.63;;;9.02;;
24259;SDS011;12384;48.112;18.418;2023-03-02T12:45:42;10.93;;;9.90;;
24259;SDS011;12384;48.112;18.418;2023-03-02T12:48:31;9.23;;;8.73;;
24259;SDS011;12384;48.112;18.418;2023-03-02T12:51:11;9.40;;;8.90;;
24259;SDS011;12384;48.112;18.418;2023-03-02T12:53:45;9.60;;;9.00;;
24259;SDS011;12384;48.112;18.418;2023-03-02T12:56:20;8.95;;;8.45;;
24259;SDS011;12384;48.112;18.418;2023-03-02T12:58:50;9.70;;;9.10;;
24259;SDS011;12384;48.112;18.418;2023-03-02T13:01:21;9.48;;;8.98;;
24259;SDS011;12384;48.112;18.418;2023-03-02T13:03:52;9.80;;;9.20;;
24259;SDS011;12384;48.112;18.418;2023-03-02T13:06:22;9.35;;;8.85;;
24259;SDS011;12384;48.112;18.418;2023-03-02T13:08:54;9.55;;;9.00;;
24259;SDS011;12384;48.112;18.418;2023-03-02T13:11:25;9.98;;;9.27;;
24259;SDS011;12384;48.112;18.418;2023-03-02T13:13:57;10.02;;;9.38;;
24259;SDS011;12384;48.112;18.418;2023-03-02T13:16:26;9.70;;;9.10;;
24259;SDS011;12384;48.112;18.418;2023-03-02T13:18:59;9.57;;;8.90;;
24259;SDS011;12384;48.112;18.418;2023-03-02T13:21:31;9.48;;;8.88;;
24259;SDS011;12384;48.112;18.418;2023-03-02T13:24:01;10.32;;;9.73;;
24259;SDS011;12384;48.112;18.418;2023-03-02T13:26:30;9.20;;;8.60;;
24259;SDS011;12384;48.112;18.418;2023-03-02T13:29:02;8.70;;;8.20;;
24259;SDS011;12384;48.112;18.418;2023-03-02T13:31:32;10.10;;;9.50;;
24259;SDS011;12384;48.112;18.418;2023-03-02T13:34:02;9.45;;;8.90;;
24259;SDS011;12384;48.112;18.418;2023-03-02T13:36:33;10.25;;;9.65;;
24259;SDS011;12384;48.112;18.418;2023-03-02T13:39:04;9.80;;;9.15;;
24259;SDS011;12384;48.112;18.418;2023-03-02T13:41:35;8.80;;;8.20;;
24259;SDS011;12384;48.112;18.418;2023-03-02T13:44:16;8.68;;;8.18;;
24259;SDS011;12384;48.112;18.418;2023-03-02T13:46:46;9.20;;;8.70;;
24259;SDS011;12384;48.112;18.418;2023-03-02T13:49:25;9.48;;;8.88;;
24259;SDS011;12384;48.112;18.418;2023-03-02T13:51:56;9.68;;;9.10;;
24259;SDS011;12384;48.112;18.418;2023-03-02T13:54:28;10.10;;;9.50;;
24259;SDS011;12384;48.112;18.418;2023-03-02T13:56:59;9.32;;;8.82;;
24259;SDS011;12384;48.112;18.418;2023-03-02T13:59:29;9.02;;;8.52;;
24259;SDS011;12384;48.112;18.418;2023-03-02T14:01:58;9.15;;;8.65;;
24259;SDS011;12384;48.112;18.418;2023-03-02T14:04:28;10.23;;;9.55;;
24259;SDS011;12384;48.112;18.418;2023-03-02T14:06:56;10.43;;;9.73;;
24259;SDS011;12384;48.112;18.418;2023-03-02T14:09:25;9.60;;;8.98;;
24259;SDS011;12384;48.112;18.418;2023-03-02T14:11:54;9.90;;;9.30;;
24259;SDS011;12384;48.112;18.418;2023-03-02T14:14:23;9.98;;;9.38;;
24259;SDS011;12384;48.112;18.418;2023-03-02T14:16:55;9.60;;;9.00;;
24259;SDS011;12384;48.112;18.418;2023-03-02T14:19:24;9.30;;;8.60;;
24259;SDS011;12384;48.112;18.418;2023-03-02T14:21:53;11.02;;;10.30;;
24259;SDS011;12384;48.112;18.418;2023-03-02T14:24:22;10.10;;;9.43;;
24259;SDS011;12384;48.112;18.418;2023-03-02T14:26:50;9.85;;;9.25;;
24259;SDS011;12384;48.112;18.418;2023-03-02T14:29:20;10.35;;;9.70;;
24259;SDS011;12384;48.112;18.418;2023-03-02T14:31:51;9.55;;;9.05;;
24259;SDS011;12384;48.112;18.418;2023-03-02T14:34:20;10.75;;;10.05;;
24259;SDS011;12384;48.112;18.418;2023-03-02T14:36:49;9.93;;;9.32;;
24259;SDS011;12384;48.112;18.418;2023-03-02T14:39:23;10.23;;;9.63;;
24259;SDS011;12384;48.112;18.418;2023-03-02T14:41:58;9.55;;;8.95;;